createdAt,value
2018-07-14T00:00:01.727Z,10.50
2018-07-14T00:02:33.310Z,9.27
2018-07-14T00:05:04.238Z,8.37
2018-07-14T00:07:35.020Z,8.80
2018-07-14T00:10:05.833Z,8.37
2018-07-14T00:12:36.758Z,8.03
2018-07-14T00:15:08.098Z,9.13
2018-07-14T00:17:40.371Z,7.93
2018-07-14T00:20:11.245Z,8.83
2018-07-14T00:22:42.092Z,7.33
2018-07-14T00:25:13.417Z,8.67
2018-07-14T00:27:44.303Z,7.97
2018-07-14T00:30:15.246Z,8.60
2018-07-14T00:32:47.880Z,7.50
2018-07-14T00:35:18.739Z,8.23
2018-07-14T00:37:49.507Z,7.90
2018-07-14T00:40:20.282Z,7.80
2018-07-14T00:42:51.666Z,8.77
2018-07-14T00:45:22.598Z,9.73
2018-07-14T00:47:53.465Z,8.87
2018-07-14T00:50:24.171Z,8.23
2018-07-14T00:52:54.918Z,9.93
2018-07-14T00:55:27.127Z,9.80
2018-07-14T00:57:57.844Z,7.53
2018-07-14T01:00:28.691Z,10.60
2018-07-14T01:02:59.679Z,9.53
2018-07-14T01:05:30.446Z,8.47
2018-07-14T01:08:01.166Z,8.63
2018-07-14T01:10:32.390Z,9.00
2018-07-14T01:13:03.074Z,9.03
2018-07-14T01:15:33.834Z,8.63
2018-07-14T01:18:04.708Z,8.50
2018-07-14T01:20:35.448Z,9.00
2018-07-14T01:23:06.094Z,10.40
2018-07-14T01:25:37.132Z,8.37
2018-07-14T01:28:07.899Z,8.90
2018-07-14T01:30:38.859Z,9.20
2018-07-14T01:33:12.285Z,8.53
2018-07-14T01:35:43.339Z,10.57
2018-07-14T01:38:14.254Z,11.60
2018-07-14T01:40:45.672Z,9.30
2018-07-14T01:43:16.678Z,9.93
2018-07-14T01:45:47.410Z,9.90
2018-07-14T01:48:18.347Z,9.10
2018-07-14T01:50:49.240Z,9.30
2018-07-14T01:53:20.035Z,9.10
2018-07-14T01:55:51.308Z,10.60
2018-07-14T01:58:22.254Z,9.47
2018-07-14T02:00:53.018Z,10.00
2018-07-14T02:03:23.963Z,10.07
2018-07-14T02:05:54.969Z,10.87
2018-07-14T02:08:26.102Z,10.47
2018-07-14T02:10:56.982Z,8.60
2018-07-14T02:13:27.946Z,10.10
2018-07-14T02:15:59.133Z,10.80
2018-07-14T02:18:29.640Z,9.70
2018-07-14T02:21:00.425Z,9.90
2018-07-14T02:23:31.413Z,9.43
2018-07-14T02:26:02.715Z,9.67
2018-07-14T02:28:33.388Z,9.07
2018-07-14T02:31:04.116Z,10.43
2018-07-14T02:33:35.415Z,10.37
2018-07-14T02:36:06.287Z,10.63
2018-07-14T02:38:37.209Z,9.93
2018-07-14T02:41:08.009Z,10.80
2018-07-14T02:43:40.301Z,10.63
2018-07-14T02:46:12.148Z,11.30
2018-07-14T02:48:43.098Z,9.40
2018-07-14T02:51:14.347Z,10.37
2018-07-14T02:53:45.318Z,9.60
2018-07-14T02:56:16.247Z,9.70
2018-07-14T02:58:47.449Z,9.30
2018-07-14T03:01:18.267Z,9.77
2018-07-14T03:03:49.223Z,10.10
2018-07-14T03:06:19.424Z,9.73
2018-07-14T03:08:50.113Z,9.50
2018-07-14T03:11:21.178Z,11.73
2018-07-14T03:13:52.603Z,9.57
2018-07-14T03:16:23.613Z,9.30
2018-07-14T03:18:54.366Z,9.40
2018-07-14T03:21:25.302Z,9.70
2018-07-14T03:23:56.688Z,8.50
2018-07-14T03:26:27.747Z,10.73
2018-07-14T03:28:58.498Z,9.80
2018-07-14T03:31:29.618Z,9.80
2018-07-14T03:34:00.452Z,10.10
2018-07-14T03:36:31.257Z,10.13
2018-07-14T03:39:02.002Z,10.83
2018-07-14T03:41:33.536Z,11.10
2018-07-14T03:44:04.267Z,9.80
2018-07-14T03:46:35.107Z,10.73
2018-07-14T03:49:06.074Z,10.40
2018-07-14T03:51:37.056Z,10.97
2018-07-14T03:54:07.975Z,9.53
2018-07-14T03:56:39.284Z,9.40
2018-07-14T03:59:10.218Z,10.77
2018-07-14T04:01:41.218Z,10.80
2018-07-14T04:04:12.119Z,11.00
2018-07-14T04:06:43.207Z,10.67
2018-07-14T04:09:14.143Z,9.80
2018-07-14T04:11:45.503Z,10.73
2018-07-14T04:14:16.906Z,10.70
2018-07-14T04:16:47.687Z,11.17
2018-07-14T04:19:18.679Z,10.10
2018-07-14T04:21:49.654Z,10.47
2018-07-14T04:24:20.414Z,10.07
2018-07-14T04:26:51.823Z,11.30
2018-07-14T04:29:22.135Z,11.17
2018-07-14T04:31:53.152Z,11.07
2018-07-14T04:34:24.294Z,10.60
2018-07-14T04:36:55.460Z,11.63
2018-07-14T04:39:27.541Z,10.50
2018-07-14T04:41:58.342Z,10.00
2018-07-14T04:44:29.363Z,10.77
2018-07-14T04:47:00.917Z,11.00
2018-07-14T04:49:32.119Z,9.87
2018-07-14T04:52:02.876Z,11.30
2018-07-14T04:54:34.295Z,10.10
2018-07-14T04:57:05.274Z,11.50
2018-07-14T04:59:36.260Z,10.50
2018-07-14T05:02:07.246Z,9.50
2018-07-14T05:04:38.409Z,11.37
2018-07-14T05:07:09.227Z,11.80
2018-07-14T05:09:40.350Z,12.17
2018-07-14T05:12:11.334Z,10.50
2018-07-14T05:14:42.094Z,11.93
2018-07-14T05:17:13.427Z,12.13
2018-07-14T05:19:44.377Z,10.67
2018-07-14T05:22:15.338Z,10.13
2018-07-14T05:24:46.071Z,10.03
2018-07-14T05:27:17.241Z,9.90
2018-07-14T05:29:49.435Z,10.03
2018-07-14T05:32:20.252Z,10.10
2018-07-14T05:34:51.172Z,9.33
2018-07-14T05:37:22.474Z,10.20
2018-07-14T05:39:53.354Z,10.80
2018-07-14T05:42:24.134Z,9.20
2018-07-14T05:44:54.998Z,10.33
2018-07-14T05:47:26.076Z,9.70
2018-07-14T05:49:56.892Z,9.50
2018-07-14T05:52:27.728Z,9.37
2018-07-14T05:54:58.423Z,9.30
2018-07-14T05:57:29.761Z,9.90
2018-07-14T06:00:00.934Z,9.87
2018-07-14T06:02:32.497Z,8.93
2018-07-14T06:05:03.461Z,9.03
2018-07-14T06:07:34.857Z,8.90
2018-07-14T06:10:09.919Z,10.23
2018-07-14T06:12:48.377Z,9.60
2018-07-14T06:15:19.694Z,8.63
2018-07-14T06:17:50.231Z,8.37
2018-07-14T06:20:20.929Z,9.27
2018-07-14T06:22:51.958Z,9.93
2018-07-14T06:25:23.150Z,9.07
2018-07-14T06:27:55.257Z,8.43
2018-07-14T06:30:26.066Z,9.27
2018-07-14T06:32:56.928Z,7.77
2018-07-14T06:35:27.772Z,7.30
2018-07-14T06:37:59.111Z,7.23
2018-07-14T06:40:30.102Z,7.60
2018-07-14T06:43:00.796Z,8.37
2018-07-14T06:45:31.531Z,7.70
2018-07-14T06:48:02.927Z,7.47
2018-07-14T06:50:33.853Z,9.27
2018-07-14T06:53:04.830Z,9.40
2018-07-14T06:55:35.474Z,8.43
2018-07-14T06:58:06.722Z,9.07
2018-07-14T07:00:37.505Z,8.50
2018-07-14T07:03:08.474Z,7.60
2018-07-14T07:05:39.266Z,8.53
2018-07-14T07:08:10.390Z,8.33
2018-07-14T07:10:41.237Z,8.10
2018-07-14T07:13:12.023Z,8.43
2018-07-14T07:15:42.769Z,7.10
2018-07-14T07:18:13.679Z,7.30
2018-07-14T07:20:44.608Z,7.70
2018-07-14T07:23:15.594Z,7.63
2018-07-14T07:25:46.675Z,6.93
2018-07-14T07:28:17.314Z,7.33
2018-07-14T07:30:47.861Z,6.40
2018-07-14T07:33:19.003Z,7.40
2018-07-14T07:35:49.835Z,7.53
2018-07-14T07:38:20.606Z,7.03
2018-07-14T07:40:51.377Z,7.37
2018-07-14T07:43:22.304Z,7.33
2018-07-14T07:45:53.495Z,7.83
2018-07-14T07:48:24.286Z,7.53
2018-07-14T07:50:55.057Z,7.03
2018-07-14T07:53:25.810Z,7.20
2018-07-14T07:56:03.529Z,6.93
2018-07-14T07:58:34.543Z,7.47
2018-07-14T08:01:05.300Z,7.77
2018-07-14T08:03:36.190Z,7.77
2018-07-14T08:06:06.866Z,7.90
2018-07-14T08:08:37.281Z,7.60
2018-07-14T08:11:08.580Z,8.50
2018-07-14T08:13:40.375Z,7.80
2018-07-14T08:16:10.527Z,9.40
2018-07-14T08:18:41.797Z,8.20
2018-07-14T08:21:12.866Z,8.70
2018-07-14T08:23:43.489Z,8.80
2018-07-14T08:26:14.778Z,7.70
2018-07-14T08:28:45.996Z,7.80
2018-07-14T08:31:16.925Z,9.43
2018-07-14T08:33:47.655Z,9.10
2018-07-14T08:36:18.300Z,8.20
2018-07-14T08:38:49.275Z,9.80
2018-07-14T08:41:20.360Z,8.40
2018-07-14T08:43:51.763Z,7.97
2018-07-14T08:46:22.603Z,8.33
2018-07-14T08:48:54.518Z,8.57
2018-07-14T08:51:25.545Z,8.90
2018-07-14T08:53:56.374Z,8.53
2018-07-14T08:56:27.379Z,9.67
2018-07-14T08:58:58.449Z,8.90
2018-07-14T09:01:29.278Z,8.93
2018-07-14T09:04:00.070Z,9.27
2018-07-14T09:06:30.817Z,9.23
2018-07-14T09:09:01.400Z,10.33
2018-07-14T09:11:33.080Z,10.10
2018-07-14T09:14:03.616Z,10.13
2018-07-14T09:16:34.970Z,8.40
2018-07-14T09:19:06.683Z,9.83
2018-07-14T09:21:37.601Z,9.40
2018-07-14T09:24:08.702Z,9.30
2018-07-14T09:26:39.446Z,9.30
2018-07-14T09:29:09.717Z,9.43
2018-07-14T09:31:40.219Z,11.20
2018-07-14T09:34:11.126Z,9.80
2018-07-14T09:36:43.068Z,9.70
2018-07-14T09:39:14.341Z,8.60
2018-07-14T09:41:46.803Z,9.00
2018-07-14T09:44:17.718Z,9.33
2018-07-14T09:46:48.119Z,9.17
2018-07-14T09:49:19.038Z,9.03
2018-07-14T09:51:50.070Z,9.53
2018-07-14T09:54:20.710Z,8.20
2018-07-14T09:56:51.467Z,8.63
2018-07-14T09:59:22.019Z,11.27
2018-07-14T10:01:52.888Z,9.10
2018-07-14T10:04:23.850Z,9.53
2018-07-14T10:06:54.736Z,8.87
2018-07-14T10:09:25.479Z,8.90
2018-07-14T10:11:56.697Z,9.17
2018-07-14T10:14:27.480Z,9.40
2018-07-14T10:16:58.329Z,9.33
2018-07-14T10:19:29.497Z,8.13
2018-07-14T10:22:00.565Z,8.80
2018-07-14T10:24:31.406Z,10.30
2018-07-14T10:27:02.283Z,8.90
2018-07-14T10:29:32.955Z,7.77
2018-07-14T10:32:04.027Z,8.67
2018-07-14T10:34:34.990Z,9.13
2018-07-14T10:37:05.786Z,9.13
2018-07-14T10:39:36.826Z,8.13
2018-07-14T10:42:08.183Z,7.77
2018-07-14T10:44:39.369Z,9.20
2018-07-14T10:47:10.090Z,9.47
2018-07-14T10:49:41.006Z,7.63
2018-07-14T10:52:11.953Z,7.30
2018-07-14T10:54:42.443Z,8.57
2018-07-14T10:57:13.730Z,7.43
2018-07-14T10:59:44.610Z,7.77
2018-07-14T11:02:15.358Z,7.63
2018-07-14T11:04:46.707Z,6.53
2018-07-14T11:07:17.672Z,8.27
2018-07-14T11:09:48.730Z,7.40
2018-07-14T11:12:19.794Z,6.87
2018-07-14T11:14:51.175Z,7.17
2018-07-14T11:17:22.279Z,7.17
2018-07-14T11:19:53.154Z,8.47
2018-07-14T11:22:23.929Z,6.73
2018-07-14T11:24:54.575Z,6.40
2018-07-14T11:27:25.951Z,6.50
2018-07-14T11:29:56.760Z,8.43
2018-07-14T11:32:28.080Z,6.20
2018-07-14T11:34:59.345Z,8.00
2018-07-14T11:37:30.401Z,6.57
2018-07-14T11:40:02.539Z,7.43
2018-07-14T11:42:33.233Z,6.13
2018-07-14T11:45:04.370Z,6.70
2018-07-14T11:47:35.344Z,7.10
2018-07-14T11:50:06.452Z,6.50
2018-07-14T11:52:37.511Z,6.47
2018-07-14T11:55:08.659Z,6.10
2018-07-14T11:57:39.714Z,5.40
2018-07-14T12:00:10.499Z,5.90
2018-07-14T12:02:41.390Z,5.90
2018-07-14T12:05:12.194Z,5.90
2018-07-14T12:07:42.938Z,5.10
2018-07-14T12:10:13.670Z,5.90
2018-07-14T12:12:45.003Z,6.23
2018-07-14T12:15:15.801Z,6.00
2018-07-14T12:17:46.019Z,5.77
2018-07-14T12:20:16.809Z,5.33
2018-07-14T12:22:47.694Z,5.37
2018-07-14T12:25:18.523Z,5.53
2018-07-14T12:27:49.919Z,5.50
2018-07-14T12:30:20.893Z,5.87
2018-07-14T12:32:51.759Z,4.80
2018-07-14T12:35:22.730Z,5.30
2018-07-14T12:37:53.681Z,5.07
2018-07-14T12:40:24.638Z,4.60
2018-07-14T12:42:56.018Z,5.07
2018-07-14T12:45:26.754Z,4.87
2018-07-14T12:47:57.558Z,5.20
2018-07-14T12:50:28.358Z,4.73
2018-07-14T12:52:59.319Z,4.93
2018-07-14T12:55:30.464Z,4.33
2018-07-14T12:58:01.755Z,4.37
2018-07-14T13:00:32.446Z,5.80
2018-07-14T13:03:03.164Z,4.63
2018-07-14T13:05:34.244Z,5.43
2018-07-14T13:08:05.242Z,5.10
2018-07-14T13:10:35.870Z,4.10
2018-07-14T13:13:06.519Z,4.80
2018-07-14T13:15:37.998Z,5.30
2018-07-14T13:18:08.668Z,4.80
2018-07-14T13:20:39.520Z,4.90
2018-07-14T13:23:10.893Z,4.90
2018-07-14T13:25:41.776Z,4.57
2018-07-14T13:28:12.717Z,4.57
2018-07-14T13:30:44.246Z,4.93
2018-07-14T13:33:15.002Z,4.70
2018-07-14T13:35:45.415Z,4.87
2018-07-14T13:38:15.902Z,4.50
2018-07-14T13:40:46.690Z,4.40
2018-07-14T13:43:17.633Z,3.80
2018-07-14T13:45:48.558Z,4.03
2018-07-14T13:48:19.329Z,3.90
2018-07-14T13:50:50.147Z,4.20
2018-07-14T13:53:20.886Z,4.53
2018-07-14T13:55:51.762Z,4.00
2018-07-14T13:58:22.598Z,3.90
2018-07-14T14:00:53.482Z,4.83
2018-07-14T14:03:24.352Z,4.30
2018-07-14T14:05:54.923Z,4.80
2018-07-14T14:08:25.879Z,4.20
2018-07-14T14:10:56.836Z,4.43
2018-07-14T14:13:27.991Z,4.20
2018-07-14T14:15:58.850Z,3.90
2018-07-14T14:18:29.758Z,4.07
2018-07-14T14:21:01.281Z,3.93
2018-07-14T14:23:32.451Z,4.50
2018-07-14T14:26:03.055Z,5.17
2018-07-14T14:28:38.409Z,4.10
2018-07-14T14:31:09.185Z,4.70
2018-07-14T14:33:39.805Z,5.40
2018-07-14T14:36:10.597Z,4.40
2018-07-14T14:38:40.655Z,4.40
2018-07-14T14:41:11.607Z,4.23
2018-07-14T14:43:42.504Z,4.50
2018-07-14T14:46:13.424Z,4.00
2018-07-14T14:48:44.301Z,4.20
2018-07-14T14:51:15.312Z,4.30
2018-07-14T14:53:46.099Z,4.27
2018-07-14T14:56:17.574Z,4.50
2018-07-14T14:58:48.394Z,3.80
2018-07-14T15:01:19.353Z,4.43
2018-07-14T15:03:50.177Z,4.20
2018-07-14T15:06:25.696Z,4.20
2018-07-14T15:08:56.434Z,3.97
2018-07-14T15:11:27.613Z,3.80
2018-07-14T15:13:58.543Z,4.10
2018-07-14T15:16:29.429Z,4.00
2018-07-14T15:19:00.753Z,3.93
2018-07-14T15:21:31.850Z,3.67
2018-07-14T15:24:02.723Z,3.50
2018-07-14T15:26:33.446Z,3.43
2018-07-14T15:29:06.755Z,3.60
2018-07-14T15:31:37.622Z,3.67
2018-07-14T15:34:08.404Z,3.80
2018-07-14T15:36:39.806Z,3.70
2018-07-14T15:39:10.976Z,3.23
2018-07-14T15:41:41.745Z,3.40
2018-07-14T15:44:13.024Z,3.30
2018-07-14T15:46:43.892Z,3.90
2018-07-14T15:49:14.794Z,3.40
2018-07-14T15:51:45.464Z,3.03
2018-07-14T15:54:18.030Z,3.53
2018-07-14T15:56:48.675Z,3.33
2018-07-14T15:59:19.667Z,3.63
2018-07-14T16:01:50.383Z,3.37
2018-07-14T16:04:21.145Z,3.50
2018-07-14T16:06:51.953Z,3.67
2018-07-14T16:09:22.640Z,3.77
2018-07-14T16:11:53.302Z,3.40
2018-07-14T16:14:24.697Z,3.07
2018-07-14T16:16:55.665Z,3.40
2018-07-14T16:19:26.361Z,3.30
2018-07-14T16:21:57.403Z,2.83
2018-07-14T16:24:28.282Z,3.80
2018-07-14T16:26:59.174Z,3.27
2018-07-14T16:29:30.510Z,3.60
2018-07-14T16:32:01.358Z,2.90
2018-07-14T16:34:31.906Z,2.77
2018-07-14T16:37:03.035Z,3.00
2018-07-14T16:39:33.853Z,3.03
2018-07-14T16:42:05.083Z,2.90
2018-07-14T16:44:36.412Z,2.80
2018-07-14T16:47:07.331Z,3.27
2018-07-14T16:49:37.893Z,2.90
2018-07-14T16:52:08.817Z,3.80
2018-07-14T16:54:39.601Z,3.70
2018-07-14T16:57:10.334Z,3.50
2018-07-14T16:59:41.390Z,3.33
2018-07-14T17:02:12.124Z,2.97
2018-07-14T17:04:42.854Z,3.00
2018-07-14T17:07:15.398Z,3.00
2018-07-14T17:09:46.109Z,2.70
2018-07-14T17:12:16.291Z,3.30
2018-07-14T17:14:46.998Z,2.90
2018-07-14T17:17:18.316Z,2.73
2018-07-14T17:19:49.345Z,3.00
2018-07-14T17:22:21.959Z,2.80
2018-07-14T17:24:52.850Z,3.70
2018-07-14T17:27:23.722Z,3.50
2018-07-14T17:29:55.321Z,2.80
2018-07-14T17:32:26.098Z,2.97
2018-07-14T17:34:57.414Z,4.10
2018-07-14T17:37:28.661Z,3.10
2018-07-14T17:39:59.525Z,3.53
2018-07-14T17:42:30.417Z,4.10
2018-07-14T17:45:01.181Z,3.07
2018-07-14T17:47:31.965Z,2.70
2018-07-14T17:50:02.939Z,2.60
2018-07-14T17:52:34.258Z,2.90
2018-07-14T17:55:05.232Z,2.70
2018-07-14T17:57:36.554Z,3.30
2018-07-14T18:00:08.951Z,2.77
2018-07-14T18:02:40.491Z,3.80
2018-07-14T18:05:11.467Z,2.90
2018-07-14T18:07:42.315Z,3.00
2018-07-14T18:10:13.294Z,3.00
2018-07-14T18:12:44.218Z,3.40
2018-07-14T18:15:16.449Z,3.70
2018-07-14T18:17:47.260Z,3.30
2018-07-14T18:20:18.132Z,5.57
2018-07-14T18:22:48.806Z,7.13
2018-07-14T18:25:19.402Z,6.43
2018-07-14T18:27:49.677Z,4.77
2018-07-14T18:30:20.987Z,3.60
2018-07-14T18:32:51.730Z,3.43
2018-07-14T18:35:22.346Z,2.90
2018-07-14T18:37:53.385Z,2.40
2018-07-14T18:40:24.238Z,2.83
2018-07-14T18:42:55.023Z,2.60
2018-07-14T18:45:26.398Z,2.70
2018-07-14T18:47:57.288Z,3.10
2018-07-14T18:50:27.972Z,2.70
2018-07-14T18:52:58.747Z,2.40
2018-07-14T18:55:29.462Z,2.70
2018-07-14T18:58:00.226Z,2.90
2018-07-14T19:00:31.575Z,2.47
2018-07-14T19:03:02.351Z,2.60
2018-07-14T19:05:33.057Z,2.67
2018-07-14T19:08:04.136Z,2.90
2018-07-14T19:10:34.815Z,2.50
2018-07-14T19:13:05.799Z,2.50
2018-07-14T19:15:36.601Z,2.60
2018-07-14T19:18:07.754Z,2.60
2018-07-14T19:20:38.003Z,2.23
2018-07-14T19:23:08.569Z,2.37
2018-07-14T19:25:39.496Z,2.10
2018-07-14T19:28:10.671Z,1.97
2018-07-14T19:30:42.103Z,1.77
2018-07-14T19:33:13.093Z,2.10
2018-07-14T19:35:44.290Z,2.10
2018-07-14T19:38:14.470Z,2.20
2018-07-14T19:40:45.382Z,2.23
2018-07-14T19:43:16.145Z,2.63
2018-07-14T19:45:47.614Z,3.03
2018-07-14T19:48:18.347Z,2.63
2018-07-14T19:50:49.106Z,2.83
2018-07-14T19:53:20.144Z,2.63
2018-07-14T19:55:51.138Z,2.50
2018-07-14T19:58:22.215Z,2.70
2018-07-14T20:00:53.023Z,2.60
2018-07-14T20:03:23.887Z,2.50
2018-07-14T20:05:54.750Z,2.07
2018-07-14T20:08:25.764Z,2.30
2018-07-14T20:10:56.527Z,2.40
2018-07-14T20:13:27.488Z,2.30
2018-07-14T20:15:58.600Z,2.47
2018-07-14T20:18:29.478Z,2.27
2018-07-14T20:21:00.532Z,2.53
2018-07-14T20:23:31.254Z,2.37
2018-07-14T20:26:02.055Z,2.40
2018-07-14T20:28:33.001Z,2.70
2018-07-14T20:31:05.059Z,3.00
2018-07-14T20:33:35.982Z,2.57
2018-07-14T20:36:06.719Z,2.80
2018-07-14T20:38:37.279Z,2.77
2018-07-14T20:41:08.802Z,2.77
2018-07-14T20:43:39.452Z,2.80
2018-07-14T20:46:11.615Z,2.53
2018-07-14T20:48:42.396Z,2.60
2018-07-14T20:51:13.204Z,2.60
2018-07-14T20:53:44.224Z,2.43
2018-07-14T20:56:14.462Z,2.97
2018-07-14T20:58:45.134Z,2.73
2018-07-14T21:01:15.335Z,2.67
2018-07-14T21:03:46.508Z,3.30
2018-07-14T21:06:17.592Z,2.97
2018-07-14T21:08:48.487Z,3.10
2018-07-14T21:11:19.323Z,3.33
2018-07-14T21:13:50.102Z,3.00
2018-07-14T21:16:21.438Z,2.93
2018-07-14T21:18:52.254Z,3.40
2018-07-14T21:21:23.160Z,3.30
2018-07-14T21:23:53.951Z,3.30
2018-07-14T21:26:24.771Z,3.77
2018-07-14T21:28:55.849Z,3.53
2018-07-14T21:31:26.745Z,3.70
2018-07-14T21:33:57.591Z,3.40
2018-07-14T21:36:29.140Z,3.50
2018-07-14T21:38:59.918Z,3.60
2018-07-14T21:41:30.782Z,4.00
2018-07-14T21:44:01.938Z,3.53
2018-07-14T21:46:32.966Z,2.90
2018-07-14T21:49:04.040Z,3.10
2018-07-14T21:51:34.997Z,3.43
2018-07-14T21:54:05.746Z,3.00
2018-07-14T21:56:36.575Z,3.33
2018-07-14T21:59:07.092Z,3.17
2018-07-14T22:01:43.403Z,3.67
2018-07-14T22:04:14.176Z,2.67
2018-07-14T22:06:44.906Z,3.07
2018-07-14T22:09:15.936Z,3.70
2018-07-14T22:11:46.503Z,2.97
2018-07-14T22:14:17.100Z,3.23
2018-07-14T22:16:48.447Z,3.00
2018-07-14T22:19:19.306Z,3.00
2018-07-14T22:21:50.034Z,3.10
2018-07-14T22:24:21.362Z,3.20
2018-07-14T22:26:52.376Z,3.50
2018-07-14T22:29:23.131Z,3.27
2018-07-14T22:31:53.980Z,3.00
2018-07-14T22:34:24.826Z,2.90
2018-07-14T22:36:56.031Z,3.27
2018-07-14T22:39:27.147Z,2.80
2018-07-14T22:41:57.920Z,3.20
2018-07-14T22:44:28.604Z,3.10
2018-07-14T22:46:59.758Z,3.00
2018-07-14T22:49:30.433Z,2.60
2018-07-14T22:52:01.747Z,3.00
2018-07-14T22:54:32.390Z,2.73
2018-07-14T22:57:03.205Z,3.23
2018-07-14T22:59:34.125Z,2.97
2018-07-14T23:02:05.441Z,2.80
2018-07-14T23:04:36.179Z,3.03
2018-07-14T23:07:06.748Z,3.23
2018-07-14T23:09:37.728Z,3.00
2018-07-14T23:12:08.559Z,3.00
2018-07-14T23:14:39.310Z,3.00
2018-07-14T23:17:12.404Z,2.50
2018-07-14T23:19:43.046Z,4.17
2018-07-14T23:22:13.616Z,3.83
2018-07-14T23:24:44.988Z,3.40
2018-07-14T23:27:15.918Z,3.13
2018-07-14T23:29:46.942Z,2.80
2018-07-14T23:32:17.707Z,3.00
2018-07-14T23:34:48.639Z,3.57
2018-07-14T23:37:19.430Z,2.77
2018-07-14T23:39:49.682Z,2.70
2018-07-14T23:42:20.231Z,2.70
2018-07-14T23:44:51.502Z,2.50
2018-07-14T23:47:22.538Z,2.70
2018-07-14T23:49:53.422Z,2.60
2018-07-14T23:52:24.368Z,2.37
2018-07-14T23:54:55.219Z,3.00
2018-07-14T23:57:25.965Z,2.33
2018-07-14T23:59:57.003Z,2.30
